March ARB, California
Current Conditions -  °F | °C
As of 3:58 PM on Thursday 27 Nov 2014 (Local Time) from KRIV Reporting Station
Clear Clear  
Wind Chill: 83°   Ceiling: Unl
Heat Index: 83°   Visibility: 10mi
Dew Point: 13°   Wind: 6mph
Humidity: 7%   Direction: 60°ENE
Pressure: 30.05"   Gusts: NA
Location:  33.8951°N, 117.268°W
Report Text: KRIV 272358Z AUTO 06005KT 10SM CLR 28/M10 A3005 RMK AO2 SLP168 T02841103 10305 20244 56009
Loading
Personal Weather Stations






























Interactive Weather Map New forecast layout! Learn more

10-Day Weather Forecast

Advertisements
Track Severe Weather on mobile